createdAt,value
2022-08-17T00:02:43.659Z,25.5
2022-08-17T00:08:00.074Z,25.9
2022-08-17T00:13:10.463Z,25.0
2022-08-17T00:19:06.566Z,25.6
2022-08-17T00:23:19.486Z,27.7
2022-08-17T00:28:25.863Z,31.8
2022-08-17T00:33:32.359Z,35.9
2022-08-17T00:38:42.745Z,30.9
2022-08-17T00:43:35.096Z,27.9
2022-08-17T00:48:51.529Z,25.2
2022-08-17T00:53:57.902Z,28.3
2022-08-17T00:59:04.275Z,30.0
2022-08-17T01:04:11.259Z,29.6
2022-08-17T01:09:17.627Z,26.8
2022-08-17T01:14:24.002Z,32.6
2022-08-17T01:19:30.463Z,27.6
2022-08-17T01:24:36.935Z,27.0
2022-08-17T01:29:43.434Z,34.9
2022-08-17T01:34:50.674Z,36.8
2022-08-17T01:39:56.370Z,33.5
2022-08-17T01:45:02.660Z,27.9
2022-08-17T01:50:09.079Z,38.6
2022-08-17T01:55:15.454Z,29.6
2022-08-17T02:00:21.829Z,34.0
2022-08-17T02:05:28.230Z,40.1
2022-08-17T02:10:24.609Z,38.5
2022-08-17T02:15:41.008Z,37.0
2022-08-17T02:20:47.530Z,27.6
2022-08-17T02:25:54.060Z,34.2
2022-08-17T02:31:04.003Z,41.4
2022-08-17T02:36:10.386Z,35.4
2022-08-17T02:41:16.761Z,34.4
2022-08-17T02:46:13.115Z,30.4
2022-08-17T02:51:19.651Z,31.1
2022-08-17T02:56:36.047Z,30.5
2022-08-17T03:01:42.494Z,39.5
2022-08-17T03:06:48.915Z,37.2
2022-08-17T03:11:55.958Z,33.6
2022-08-17T03:17:01.804Z,37.1
2022-08-17T03:22:36.146Z,36.0
2022-08-17T03:27:18.583Z,30.7
2022-08-17T03:32:24.960Z,37.1
2022-08-17T03:37:27.342Z,39.3
2022-08-17T03:43:07.960Z,56.3
2022-08-17T03:48:15.320Z,34.9
2022-08-17T03:54:33.829Z,33.1
2022-08-17T03:58:28.071Z,39.8
2022-08-17T04:03:58.594Z,45.7
2022-08-17T04:09:04.980Z,40.0
2022-08-17T04:13:47.438Z,40.4
2022-08-17T04:18:53.818Z,41.8
2022-08-17T04:24:14.236Z,44.2
2022-08-17T04:28:56.577Z,37.9
2022-08-17T04:34:12.970Z,45.8
2022-08-17T04:39:09.353Z,40.2
2022-08-17T04:44:36.759Z,37.0
2022-08-17T04:49:32.158Z,41.8
2022-08-17T04:54:38.560Z,38.2
2022-08-17T04:59:44.937Z,47.6
2022-08-17T05:04:51.315Z,39.0
2022-08-17T05:09:57.723Z,41.4
2022-08-17T05:15:08.113Z,43.2
2022-08-17T05:20:10.508Z,44.9
2022-08-17T05:25:37.441Z,50.1
2022-08-17T05:30:23.308Z,45.4
2022-08-17T05:35:49.693Z,44.4
2022-08-17T05:40:36.044Z,37.0
2022-08-17T05:45:55.147Z,44.2
2022-08-17T05:50:48.855Z,38.2
2022-08-17T05:56:28.007Z,45.2
2022-08-17T06:01:01.836Z,39.6
2022-08-17T06:06:31.084Z,44.2
2022-08-17T06:11:14.451Z,33.9
2022-08-17T06:16:32.978Z,46.9
2022-08-17T06:21:32.170Z,36.1
2022-08-17T06:26:38.544Z,37.8
2022-08-17T06:31:40.258Z,35.4
2022-08-17T06:36:46.728Z,31.2
2022-08-17T06:41:43.095Z,33.1
2022-08-17T06:46:49.448Z,29.8
2022-08-17T06:51:55.837Z,30.6
2022-08-17T06:57:02.214Z,34.5
2022-08-17T07:02:18.619Z,28.4
2022-08-17T07:07:15.009Z,42.0
2022-08-17T07:12:31.605Z,22.8
2022-08-17T07:17:47.474Z,33.2
2022-08-17T07:22:57.596Z,23.1
2022-08-17T07:27:51.113Z,22.2
2022-08-17T07:32:47.273Z,24.5
2022-08-17T07:37:53.662Z,26.2
2022-08-17T07:43:14.031Z,21.9
2022-08-17T07:48:16.567Z,27.1
2022-08-17T07:53:22.968Z,23.2
2022-08-17T07:58:19.320Z,19.8
2022-08-17T08:03:59.775Z,20.3
2022-08-17T08:08:42.157Z,16.4
2022-08-17T08:13:48.514Z,19.0
2022-08-17T08:18:57.207Z,16.8
2022-08-17T08:24:01.371Z,22.6
2022-08-17T08:29:07.793Z,17.8
2022-08-17T08:34:04.247Z,18.9
2022-08-17T08:39:20.662Z,18.3
2022-08-17T08:44:59.739Z,69.1
2022-08-17T08:50:02.117Z,36.3
2022-08-17T08:55:03.062Z,18.5
2022-08-17T08:59:51.182Z,21.9
2022-08-17T09:05:13.310Z,15.0
2022-08-17T09:09:59.627Z,17.1
2022-08-17T09:14:55.603Z,14.7
2022-08-17T09:20:12.162Z,19.4
2022-08-17T09:25:18.578Z,45.2
2022-08-17T09:30:14.938Z,16.0
2022-08-17T09:35:51.370Z,23.9
2022-08-17T09:40:37.727Z,17.5
2022-08-17T09:45:34.085Z,17.1
2022-08-17T09:51:03.248Z,19.3
2022-08-17T09:56:16.939Z,22.3
2022-08-17T10:00:53.327Z,14.7
2022-08-17T10:06:08.656Z,16.9
2022-08-17T10:11:06.012Z,16.7
2022-08-17T10:16:22.416Z,17.3
2022-08-17T10:22:01.189Z,17.9
2022-08-17T10:26:25.283Z,15.5
2022-08-17T10:31:41.707Z,19.2
2022-08-17T10:37:48.184Z,23.1
2022-08-17T10:41:54.455Z,16.1
2022-08-17T10:48:04.091Z,22.7
2022-08-17T10:52:45.294Z,19.8
2022-08-17T10:58:51.909Z,16.0
2022-08-17T11:03:42.274Z,16.9
2022-08-17T11:08:28.607Z,15.6
2022-08-17T11:13:10.932Z,14.9
2022-08-17T11:18:17.353Z,17.6
2022-08-17T11:23:23.748Z,15.9
2022-08-17T11:28:30.193Z,15.1
2022-08-17T11:33:38.193Z,15.8
2022-08-17T11:38:43.060Z,16.7
2022-08-17T11:44:09.476Z,17.6
2022-08-17T11:48:55.832Z,16.7
2022-08-17T11:54:31.047Z,18.4
2022-08-17T11:59:51.663Z,17.2
2022-08-17T12:04:15.052Z,16.1
2022-08-17T12:09:11.434Z,15.0
2022-08-17T12:15:09.617Z,19.0
2022-08-17T12:19:34.253Z,17.1
2022-08-17T12:24:40.615Z,15.6
2022-08-17T12:29:38.757Z,13.6
2022-08-17T12:34:53.353Z,13.3
2022-08-17T12:39:49.747Z,20.3
2022-08-17T12:45:06.135Z,16.7
2022-08-17T12:50:37.080Z,23.8
2022-08-17T12:55:09.384Z,14.7
2022-08-17T13:00:25.776Z,15.8
2022-08-17T13:05:22.135Z,15.1
2022-08-17T13:10:58.578Z,20.2
2022-08-17T13:16:08.988Z,14.2
2022-08-17T13:21:05.331Z,14.1
2022-08-17T13:25:57.698Z,15.8
2022-08-17T13:31:24.130Z,15.4
2022-08-17T13:36:10.510Z,15.8
2022-08-17T13:41:16.911Z,14.9
2022-08-17T13:46:23.332Z,23.1
2022-08-17T13:51:29.717Z,25.2
2022-08-17T13:56:38.338Z,32.6
2022-08-17T14:01:42.550Z,35.7
2022-08-17T14:06:51.740Z,53.9
2022-08-17T14:11:54.240Z,22.6
2022-08-17T14:17:01.639Z,42.3
2022-08-17T14:21:58.101Z,25.1
2022-08-17T14:27:14.520Z,31.6
2022-08-17T14:32:20.879Z,35.9
2022-08-17T14:37:51.566Z,36.0
2022-08-17T14:42:33.631Z,25.2
2022-08-17T14:47:40.017Z,27.5
2022-08-17T14:52:46.424Z,27.7
2022-08-17T14:57:53.081Z,26.0
2022-08-17T15:03:18.260Z,44.2
2022-08-17T15:08:05.699Z,27.8
2022-08-17T15:13:11.996Z,25.0
2022-08-17T15:18:18.458Z,30.4
2022-08-17T15:23:44.969Z,39.9
2022-08-17T15:28:31.308Z,29.5
2022-08-17T15:33:37.758Z,25.1
2022-08-17T15:38:44.515Z,29.1
2022-08-17T15:43:50.561Z,29.0
2022-08-17T15:48:56.951Z,27.4
2022-08-17T15:54:04.462Z,30.7
2022-08-17T15:59:09.710Z,29.0
2022-08-17T16:04:36.198Z,28.6
2022-08-17T16:09:22.466Z,28.3
2022-08-17T16:14:33.952Z,28.5
2022-08-17T16:19:35.356Z,33.9
2022-08-17T16:24:45.934Z,30.4
2022-08-17T16:29:48.096Z,42.6
2022-08-17T16:34:54.501Z,40.2
2022-08-17T16:40:00.944Z,37.2
2022-08-17T16:45:11.210Z,42.1
2022-08-17T16:50:17.581Z,61.2
2022-08-17T16:56:26.841Z,42.1
2022-08-17T17:00:51.420Z,48.0
2022-08-17T17:05:40.832Z,48.3
2022-08-17T17:10:47.223Z,44.3
2022-08-17T17:16:17.640Z,42.4
2022-08-17T17:21:00.039Z,50.7
2022-08-17T17:26:06.414Z,52.9
2022-08-17T17:31:12.949Z,39.4
2022-08-17T17:36:19.378Z,35.5
2022-08-17T17:41:45.785Z,33.7
2022-08-17T17:46:32.143Z,38.2
2022-08-17T17:52:06.525Z,37.9
2022-08-17T17:56:45.311Z,43.5
2022-08-17T18:02:11.670Z,30.7
2022-08-17T18:06:57.947Z,33.1
2022-08-17T18:12:04.636Z,28.7
2022-08-17T18:17:10.757Z,30.7
2022-08-17T18:22:17.099Z,28.7
2022-08-17T18:27:23.527Z,29.3
2022-08-17T18:32:29.929Z,35.8
2022-08-17T18:37:36.386Z,33.5
2022-08-17T18:42:42.781Z,33.8
2022-08-17T18:47:49.263Z,33.3
2022-08-17T18:53:19.606Z,31.9
2022-08-17T18:58:01.949Z,33.1
2022-08-17T19:03:08.334Z,34.7
2022-08-17T19:08:14.774Z,31.4
2022-08-17T19:13:23.823Z,28.6
2022-08-17T19:18:27.655Z,29.3
2022-08-17T19:23:54.642Z,25.3
2022-08-17T19:29:04.468Z,22.5
2022-08-17T19:33:50.391Z,21.4
2022-08-17T19:38:56.876Z,23.1
2022-08-17T19:44:04.845Z,19.5
2022-08-17T19:49:11.215Z,20.3
2022-08-17T19:54:17.586Z,19.5
2022-08-17T19:59:24.061Z,19.2
2022-08-17T20:04:32.646Z,16.4
2022-08-17T20:09:37.687Z,18.2
2022-08-17T20:14:55.062Z,16.0
2022-08-17T20:19:50.458Z,17.2
2022-08-17T20:24:56.981Z,16.5
2022-08-17T20:30:03.423Z,19.3
2022-08-17T20:35:09.871Z,19.3
2022-08-17T20:40:16.314Z,19.9
2022-08-17T20:45:22.800Z,21.7
2022-08-17T20:50:33.830Z,18.6
2022-08-17T20:55:52.565Z,23.4
2022-08-17T21:00:50.920Z,19.8
2022-08-17T21:05:53.222Z,21.7
2022-08-17T21:10:59.606Z,24.1
2022-08-17T21:16:05.980Z,29.3
2022-08-17T21:21:17.448Z,23.9
2022-08-17T21:26:20.373Z,30.1
2022-08-17T21:31:30.747Z,26.2
2022-08-17T21:36:37.120Z,27.1
2022-08-17T21:41:45.050Z,36.6
2022-08-17T21:46:47.465Z,29.2
2022-08-17T21:51:55.403Z,24.1
2022-08-17T21:57:05.784Z,25.8
2022-08-17T22:02:32.248Z,23.9
2022-08-17T22:07:38.576Z,21.8
2022-08-17T22:12:22.510Z,24.9
2022-08-17T22:17:28.906Z,25.4
2022-08-17T22:22:35.322Z,25.1
2022-08-17T22:27:41.829Z,24.6
2022-08-17T22:32:48.214Z,41.6
2022-08-17T22:37:54.598Z,32.3
2022-08-17T22:43:02.558Z,30.1
2022-08-17T22:48:08.925Z,28.0
2022-08-17T22:53:15.314Z,42.8
2022-08-17T22:58:25.698Z,38.7
2022-08-17T23:03:32.070Z,35.8
2022-08-17T23:08:24.430Z,41.9
2022-08-17T23:13:40.851Z,53.2
2022-08-17T23:18:47.410Z,49.8
2022-08-17T23:23:57.818Z,49.5
2022-08-17T23:29:00.376Z,57.4
2022-08-17T23:34:06.766Z,46.9
2022-08-17T23:39:13.375Z,44.9
2022-08-17T23:44:21.324Z,52.0
2022-08-17T23:49:27.695Z,73.0
2022-08-17T23:54:58.125Z,72.6
2022-08-17T23:59:40.448Z,75.1
